sensor_id;sensor_type;location;lat;lon;timestamp;temperature;humidity
24814;DHT22;12904;50.088;11.414;2022-08-01T00:00:21;19.60;99.90
24814;DHT22;12904;50.088;11.414;2022-08-01T00:02:47;19.50;99.90
24814;DHT22;12904;50.088;11.414;2022-08-01T00:05:13;19.40;99.90
24814;DHT22;12904;50.088;11.414;2022-08-01T00:07:38;19.30;99.90
24814;DHT22;12904;50.088;11.414;2022-08-01T00:10:07;19.30;99.90
24814;DHT22;12904;50.088;11.414;2022-08-01T00:12:33;19.20;99.90
24814;DHT22;12904;50.088;11.414;2022-08-01T00:14:59;19.10;99.90
24814;DHT22;12904;50.088;11.414;2022-08-01T00:17:25;19.00;99.90
24814;DHT22;12904;50.088;11.414;2022-08-01T00:19:51;19.00;99.90
24814;DHT22;12904;50.088;11.414;2022-08-01T00:22:17;18.90;99.90
24814;DHT22;12904;50.088;11.414;2022-08-01T00:24:43;18.90;99.90
24814;DHT22;12904;50.088;11.414;2022-08-01T00:27:08;18.80;99.90
24814;DHT22;12904;50.088;11.414;2022-08-01T00:29:34;18.80;99.90
24814;DHT22;12904;50.088;11.414;2022-08-01T00:32:00;18.80;99.90
24814;DHT22;12904;50.088;11.414;2022-08-01T00:34:25;18.80;99.90
24814;DHT22;12904;50.088;11.414;2022-08-01T00:36:51;18.70;99.90
24814;DHT22;12904;50.088;11.414;2022-08-01T00:39:17;18.70;99.90
24814;DHT22;12904;50.088;11.414;2022-08-01T00:41:42;18.60;99.90
24814;DHT22;12904;50.088;11.414;2022-08-01T00:44:08;18.50;99.90
24814;DHT22;12904;50.088;11.414;2022-08-01T00:46:34;18.50;99.90
24814;DHT22;12904;50.088;11.414;2022-08-01T00:49:00;18.50;99.90
24814;DHT22;12904;50.088;11.414;2022-08-01T00:51:26;18.50;99.90
24814;DHT22;12904;50.088;11.414;2022-08-01T00:53:52;18.50;99.90
24814;DHT22;12904;50.088;11.414;2022-08-01T00:56:20;18.50;99.90
24814;DHT22;12904;50.088;11.414;2022-08-01T00:58:46;18.50;99.90
24814;DHT22;12904;50.088;11.414;2022-08-01T01:01:12;18.40;99.90
24814;DHT22;12904;50.088;11.414;2022-08-01T01:03:38;18.40;99.90
24814;DHT22;12904;50.088;11.414;2022-08-01T01:09:00;18.20;99.90
24814;DHT22;12904;50.088;11.414;2022-08-01T01:15:04;18.20;99.90
24814;DHT22;12904;50.088;11.414;2022-08-01T01:17:45;18.10;99.90
24814;DHT22;12904;50.088;11.414;2022-08-01T01:20:13;18.20;99.90
24814;DHT22;12904;50.088;11.414;2022-08-01T01:30:43;18.00;99.90
24814;DHT22;12904;50.088;11.414;2022-08-01T01:33:10;17.90;99.90
24814;DHT22;12904;50.088;11.414;2022-08-01T01:35:40;17.80;99.90
24814;DHT22;12904;50.088;11.414;2022-08-01T01:38:26;17.80;99.90
24814;DHT22;12904;50.088;11.414;2022-08-01T01:40:55;17.70;99.90
24814;DHT22;12904;50.088;11.414;2022-08-01T01:43:22;17.70;99.90
24814;DHT22;12904;50.088;11.414;2022-08-01T01:45:49;17.70;99.90
24814;DHT22;12904;50.088;11.414;2022-08-01T01:48:18;17.60;99.90
24814;DHT22;12904;50.088;11.414;2022-08-01T01:50:48;17.60;99.90
24814;DHT22;12904;50.088;11.414;2022-08-01T01:53:17;17.60;99.90
24814;DHT22;12904;50.088;11.414;2022-08-01T01:55:46;17.60;99.90
24814;DHT22;12904;50.088;11.414;2022-08-01T01:58:13;17.50;99.90
24814;DHT22;12904;50.088;11.414;2022-08-01T02:00:42;17.50;99.90
24814;DHT22;12904;50.088;11.414;2022-08-01T02:03:11;17.50;99.90
24814;DHT22;12904;50.088;11.414;2022-08-01T02:05:38;17.40;99.90
24814;DHT22;12904;50.088;11.414;2022-08-01T02:08:04;17.40;99.90
24814;DHT22;12904;50.088;11.414;2022-08-01T02:10:31;17.30;99.90
24814;DHT22;12904;50.088;11.414;2022-08-01T02:12:59;17.30;99.90
24814;DHT22;12904;50.088;11.414;2022-08-01T02:15:27;17.30;99.90
24814;DHT22;12904;50.088;11.414;2022-08-01T02:17:54;17.30;99.90
24814;DHT22;12904;50.088;11.414;2022-08-01T02:20:21;17.30;99.90
24814;DHT22;12904;50.088;11.414;2022-08-01T02:22:52;17.30;99.90
24814;DHT22;12904;50.088;11.414;2022-08-01T02:25:25;17.30;99.90
24814;DHT22;12904;50.088;11.414;2022-08-01T02:27:59;17.20;99.90
24814;DHT22;12904;50.088;11.414;2022-08-01T02:30:29;17.20;99.90
24814;DHT22;12904;50.088;11.414;2022-08-01T02:33:04;17.10;99.90
24814;DHT22;12904;50.088;11.414;2022-08-01T02:35:33;17.10;99.90
24814;DHT22;12904;50.088;11.414;2022-08-01T02:38:01;17.00;99.90
24814;DHT22;12904;50.088;11.414;2022-08-01T02:40:32;17.00;99.90
24814;DHT22;12904;50.088;11.414;2022-08-01T02:43:00;16.90;99.90
24814;DHT22;12904;50.088;11.414;2022-08-01T02:45:27;16.90;99.90
24814;DHT22;12904;50.088;11.414;2022-08-01T02:47:59;16.80;99.90
24814;DHT22;12904;50.088;11.414;2022-08-01T02:50:26;16.80;99.90
24814;DHT22;12904;50.088;11.414;2022-08-01T02:52:54;16.60;99.90
24814;DHT22;12904;50.088;11.414;2022-08-01T02:55:21;16.60;99.90
24814;DHT22;12904;50.088;11.414;2022-08-01T02:57:49;16.50;99.90
24814;DHT22;12904;50.088;11.414;2022-08-01T03:00:17;16.40;99.90
24814;DHT22;12904;50.088;11.414;2022-08-01T03:02:43;16.40;99.90
24814;DHT22;12904;50.088;11.414;2022-08-01T03:05:12;16.30;99.90
24814;DHT22;12904;50.088;11.414;2022-08-01T03:07:39;16.30;99.90
24814;DHT22;12904;50.088;11.414;2022-08-01T03:10:07;16.30;99.90
24814;DHT22;12904;50.088;11.414;2022-08-01T03:12:34;16.30;99.90
24814;DHT22;12904;50.088;11.414;2022-08-01T03:15:03;16.20;99.90
24814;DHT22;12904;50.088;11.414;2022-08-01T03:17:30;16.20;99.90
24814;DHT22;12904;50.088;11.414;2022-08-01T03:19:58;16.20;99.90
24814;DHT22;12904;50.088;11.414;2022-08-01T03:22:27;16.10;99.90
24814;DHT22;12904;50.088;11.414;2022-08-01T03:24:54;16.10;99.90
24814;DHT22;12904;50.088;11.414;2022-08-01T03:27:23;16.10;99.90
24814;DHT22;12904;50.088;11.414;2022-08-01T03:29:51;16.10;99.90
24814;DHT22;12904;50.088;11.414;2022-08-01T03:32:21;16.10;99.90
24814;DHT22;12904;50.088;11.414;2022-08-01T03:34:47;16.10;99.90
24814;DHT22;12904;50.088;11.414;2022-08-01T03:37:34;16.00;99.90
24814;DHT22;12904;50.088;11.414;2022-08-01T03:42:48;16.00;99.90
24814;DHT22;12904;50.088;11.414;2022-08-01T03:45:23;16.00;99.90
24814;DHT22;12904;50.088;11.414;2022-08-01T03:48:03;16.00;99.90
24814;DHT22;12904;50.088;11.414;2022-08-01T03:50:32;16.00;99.90
24814;DHT22;12904;50.088;11.414;2022-08-01T03:53:00;16.00;99.90
24814;DHT22;12904;50.088;11.414;2022-08-01T03:55:27;16.00;99.90
24814;DHT22;12904;50.088;11.414;2022-08-01T03:57:53;16.00;99.90
24814;DHT22;12904;50.088;11.414;2022-08-01T04:00:23;16.00;99.90
24814;DHT22;12904;50.088;11.414;2022-08-01T04:02:50;16.00;99.90
24814;DHT22;12904;50.088;11.414;2022-08-01T04:05:16;16.00;99.90
24814;DHT22;12904;50.088;11.414;2022-08-01T04:07:46;16.00;99.90
24814;DHT22;12904;50.088;11.414;2022-08-01T04:10:12;15.90;99.90
24814;DHT22;12904;50.088;11.414;2022-08-01T04:12:38;15.80;99.90
24814;DHT22;12904;50.088;11.414;2022-08-01T04:15:05;15.70;99.90
24814;DHT22;12904;50.088;11.414;2022-08-01T04:17:30;15.70;99.90
24814;DHT22;12904;50.088;11.414;2022-08-01T04:19:56;15.70;99.90
24814;DHT22;12904;50.088;11.414;2022-08-01T04:22:22;15.70;99.90
24814;DHT22;12904;50.088;11.414;2022-08-01T04:24:51;15.80;99.90
24814;DHT22;12904;50.088;11.414;2022-08-01T04:27:26;15.90;99.90
24814;DHT22;12904;50.088;11.414;2022-08-01T04:29:57;16.00;99.90
24814;DHT22;12904;50.088;11.414;2022-08-01T04:32:26;16.20;99.90
24814;DHT22;12904;50.088;11.414;2022-08-01T04:34:53;16.30;99.90
24814;DHT22;12904;50.088;11.414;2022-08-01T04:37:22;16.40;99.90
24814;DHT22;12904;50.088;11.414;2022-08-01T04:39:51;16.40;99.90
24814;DHT22;12904;50.088;11.414;2022-08-01T04:42:18;16.50;99.90
24814;DHT22;12904;50.088;11.414;2022-08-01T04:44:44;16.50;99.90
24814;DHT22;12904;50.088;11.414;2022-08-01T04:47:10;16.50;99.90
24814;DHT22;12904;50.088;11.414;2022-08-01T04:49:37;16.50;99.90
24814;DHT22;12904;50.088;11.414;2022-08-01T04:52:03;16.60;99.90
24814;DHT22;12904;50.088;11.414;2022-08-01T04:54:35;16.60;99.90
24814;DHT22;12904;50.088;11.414;2022-08-01T04:57:03;16.70;99.90
24814;DHT22;12904;50.088;11.414;2022-08-01T04:59:30;16.80;99.90
24814;DHT22;12904;50.088;11.414;2022-08-01T05:02:06;17.00;99.90
24814;DHT22;12904;50.088;11.414;2022-08-01T05:04:32;17.10;99.90
24814;DHT22;12904;50.088;11.414;2022-08-01T05:07:07;17.30;99.90
24814;DHT22;12904;50.088;11.414;2022-08-01T05:09:33;17.50;99.90
24814;DHT22;12904;50.088;11.414;2022-08-01T05:12:00;17.70;99.90
24814;DHT22;12904;50.088;11.414;2022-08-01T05:14:28;18.00;99.90
24814;DHT22;12904;50.088;11.414;2022-08-01T05:16:54;18.30;99.90
24814;DHT22;12904;50.088;11.414;2022-08-01T05:19:20;18.60;99.90
24814;DHT22;12904;50.088;11.414;2022-08-01T05:21:46;18.90;99.90
24814;DHT22;12904;50.088;11.414;2022-08-01T05:24:12;19.20;99.90
24814;DHT22;12904;50.088;11.414;2022-08-01T05:26:38;19.40;99.90
24814;DHT22;12904;50.088;11.414;2022-08-01T05:29:04;19.60;99.90
24814;DHT22;12904;50.088;11.414;2022-08-01T05:31:30;19.70;99.90
24814;DHT22;12904;50.088;11.414;2022-08-01T05:34:00;19.90;99.90
24814;DHT22;12904;50.088;11.414;2022-08-01T05:36:26;20.10;99.90
24814;DHT22;12904;50.088;11.414;2022-08-01T05:38:52;20.20;99.90
24814;DHT22;12904;50.088;11.414;2022-08-01T05:41:17;20.20;99.90
24814;DHT22;12904;50.088;11.414;2022-08-01T05:43:43;20.20;99.90
24814;DHT22;12904;50.088;11.414;2022-08-01T05:46:09;20.30;99.90
24814;DHT22;12904;50.088;11.414;2022-08-01T05:48:34;20.30;99.90
24814;DHT22;12904;50.088;11.414;2022-08-01T05:51:00;20.40;99.90
24814;DHT22;12904;50.088;11.414;2022-08-01T05:53:26;20.50;99.90
24814;DHT22;12904;50.088;11.414;2022-08-01T05:55:52;20.70;99.90
24814;DHT22;12904;50.088;11.414;2022-08-01T05:58:17;21.00;99.90
24814;DHT22;12904;50.088;11.414;2022-08-01T06:00:43;21.90;99.90
24814;DHT22;12904;50.088;11.414;2022-08-01T06:03:10;23.00;99.90
24814;DHT22;12904;50.088;11.414;2022-08-01T06:05:36;24.40;99.90
24814;DHT22;12904;50.088;11.414;2022-08-01T06:08:03;25.80;99.90
24814;DHT22;12904;50.088;11.414;2022-08-01T06:10:29;27.30;99.90
24814;DHT22;12904;50.088;11.414;2022-08-01T06:12:55;28.40;92.80
24814;DHT22;12904;50.088;11.414;2022-08-01T06:15:20;29.40;80.40
24814;DHT22;12904;50.088;11.414;2022-08-01T06:17:46;30.50;71.90
24814;DHT22;12904;50.088;11.414;2022-08-01T06:20:12;31.20;67.00
24814;DHT22;12904;50.088;11.414;2022-08-01T06:22:37;31.70;63.40
24814;DHT22;12904;50.088;11.414;2022-08-01T06:25:03;31.60;62.30
24814;DHT22;12904;50.088;11.414;2022-08-01T06:27:29;31.10;62.60
24814;DHT22;12904;50.088;11.414;2022-08-01T06:29:55;29.90;65.10
24814;DHT22;12904;50.088;11.414;2022-08-01T06:32:22;28.80;70.10
24814;DHT22;12904;50.088;11.414;2022-08-01T06:34:52;28.00;78.00
24814;DHT22;12904;50.088;11.414;2022-08-01T06:37:17;27.00;92.40
24814;DHT22;12904;50.088;11.414;2022-08-01T06:39:43;26.40;99.90
24814;DHT22;12904;50.088;11.414;2022-08-01T06:42:09;26.00;99.90
24814;DHT22;12904;50.088;11.414;2022-08-01T06:44:35;25.70;99.90
24814;DHT22;12904;50.088;11.414;2022-08-01T06:47:01;25.60;99.90
24814;DHT22;12904;50.088;11.414;2022-08-01T06:49:27;25.40;99.90
24814;DHT22;12904;50.088;11.414;2022-08-01T06:51:52;25.20;99.90
24814;DHT22;12904;50.088;11.414;2022-08-01T06:54:18;25.00;99.90
24814;DHT22;12904;50.088;11.414;2022-08-01T06:56:44;24.70;99.90
24814;DHT22;12904;50.088;11.414;2022-08-01T06:59:09;24.50;99.90
24814;DHT22;12904;50.088;11.414;2022-08-01T07:01:35;24.40;99.90
24814;DHT22;12904;50.088;11.414;2022-08-01T07:04:01;24.20;99.90
24814;DHT22;12904;50.088;11.414;2022-08-01T07:06:28;24.20;99.90
24814;DHT22;12904;50.088;11.414;2022-08-01T07:08:53;24.10;99.90
24814;DHT22;12904;50.088;11.414;2022-08-01T07:11:20;24.00;99.90
24814;DHT22;12904;50.088;11.414;2022-08-01T07:13:46;24.20;99.90
24814;DHT22;12904;50.088;11.414;2022-08-01T07:16:15;24.40;99.90
24814;DHT22;12904;50.088;11.414;2022-08-01T07:18:41;25.20;99.90
24814;DHT22;12904;50.088;11.414;2022-08-01T07:21:07;26.50;99.90
24814;DHT22;12904;50.088;11.414;2022-08-01T07:23:34;27.30;96.30
24814;DHT22;12904;50.088;11.414;2022-08-01T07:26:00;27.40;95.70
24814;DHT22;12904;50.088;11.414;2022-08-01T07:28:30;27.10;98.60
24814;DHT22;12904;50.088;11.414;2022-08-01T07:30:56;27.00;99.40
24814;DHT22;12904;50.088;11.414;2022-08-01T07:33:21;26.80;99.90
24814;DHT22;12904;50.088;11.414;2022-08-01T07:35:47;26.90;97.30
24814;DHT22;12904;50.088;11.414;2022-08-01T07:38:13;26.90;95.30
24814;DHT22;12904;50.088;11.414;2022-08-01T07:40:40;27.30;95.60
24814;DHT22;12904;50.088;11.414;2022-08-01T07:43:06;27.80;91.50
24814;DHT22;12904;50.088;11.414;2022-08-01T07:45:31;28.10;85.10
24814;DHT22;12904;50.088;11.414;2022-08-01T07:48:02;28.40;82.80
24814;DHT22;12904;50.088;11.414;2022-08-01T07:50:28;28.70;78.00
24814;DHT22;12904;50.088;11.414;2022-08-01T07:52:53;28.40;77.00
24814;DHT22;12904;50.088;11.414;2022-08-01T07:55:19;28.20;78.50
24814;DHT22;12904;50.088;11.414;2022-08-01T07:57:45;28.10;79.80
24814;DHT22;12904;50.088;11.414;2022-08-01T08:00:11;28.00;79.30
24814;DHT22;12904;50.088;11.414;2022-08-01T08:02:37;27.80;82.10
24814;DHT22;12904;50.088;11.414;2022-08-01T08:05:05;27.80;83.50
24814;DHT22;12904;50.088;11.414;2022-08-01T08:07:32;27.80;81.20
24814;DHT22;12904;50.088;11.414;2022-08-01T08:09:58;27.60;82.20
24814;DHT22;12904;50.088;11.414;2022-08-01T08:12:24;27.40;86.70
24814;DHT22;12904;50.088;11.414;2022-08-01T08:14:50;27.30;90.20
24814;DHT22;12904;50.088;11.414;2022-08-01T08:17:15;27.20;90.90
24814;DHT22;12904;50.088;11.414;2022-08-01T08:19:41;27.00;91.50
24814;DHT22;12904;50.088;11.414;2022-08-01T08:22:07;26.80;92.50
24814;DHT22;12904;50.088;11.414;2022-08-01T08:24:34;26.50;94.80
24814;DHT22;12904;50.088;11.414;2022-08-01T08:27:01;26.40;97.80
24814;DHT22;12904;50.088;11.414;2022-08-01T08:29:28;26.20;99.90
24814;DHT22;12904;50.088;11.414;2022-08-01T08:31:58;26.30;99.90
24814;DHT22;12904;50.088;11.414;2022-08-01T08:34:25;26.70;98.00
24814;DHT22;12904;50.088;11.414;2022-08-01T08:36:51;27.30;93.70
24814;DHT22;12904;50.088;11.414;2022-08-01T08:39:17;28.00;83.80
24814;DHT22;12904;50.088;11.414;2022-08-01T08:41:43;28.50;77.40
24814;DHT22;12904;50.088;11.414;2022-08-01T08:44:10;28.60;75.40
24814;DHT22;12904;50.088;11.414;2022-08-01T08:46:47;28.40;76.60
24814;DHT22;12904;50.088;11.414;2022-08-01T08:49:25;28.30;77.70
24814;DHT22;12904;50.088;11.414;2022-08-01T08:51:51;28.10;81.60
24814;DHT22;12904;50.088;11.414;2022-08-01T08:54:20;27.50;84.00
24814;DHT22;12904;50.088;11.414;2022-08-01T08:56:47;27.20;91.80
24814;DHT22;12904;50.088;11.414;2022-08-01T08:59:13;27.00;96.10
24814;DHT22;12904;50.088;11.414;2022-08-01T09:01:40;27.00;93.40
24814;DHT22;12904;50.088;11.414;2022-08-01T09:04:05;27.00;94.40
24814;DHT22;12904;50.088;11.414;2022-08-01T09:06:33;26.90;95.30
24814;DHT22;12904;50.088;11.414;2022-08-01T09:08:59;26.70;96.60
24814;DHT22;12904;50.088;11.414;2022-08-01T09:11:25;26.60;94.30
24814;DHT22;12904;50.088;11.414;2022-08-01T09:14:13;26.50;97.10
24814;DHT22;12904;50.088;11.414;2022-08-01T09:16:44;26.30;99.90
24814;DHT22;12904;50.088;11.414;2022-08-01T09:19:13;26.30;99.90
24814;DHT22;12904;50.088;11.414;2022-08-01T09:21:40;26.50;99.90
24814;DHT22;12904;50.088;11.414;2022-08-01T09:24:20;27.50;99.90
24814;DHT22;12904;50.088;11.414;2022-08-01T09:26:45;28.70;83.20
24814;DHT22;12904;50.088;11.414;2022-08-01T09:29:18;29.90;72.90
24814;DHT22;12904;50.088;11.414;2022-08-01T09:31:45;30.70;69.10
24814;DHT22;12904;50.088;11.414;2022-08-01T09:34:12;30.90;64.80
24814;DHT22;12904;50.088;11.414;2022-08-01T09:39:12;30.40;64.70
24814;DHT22;12904;50.088;11.414;2022-08-01T09:41:39;29.80;66.50
24814;DHT22;12904;50.088;11.414;2022-08-01T09:44:05;29.10;68.80
24814;DHT22;12904;50.088;11.414;2022-08-01T09:46:31;28.30;74.10
24814;DHT22;12904;50.088;11.414;2022-08-01T09:49:04;27.60;77.50
24814;DHT22;12904;50.088;11.414;2022-08-01T09:51:31;27.20;85.10
24814;DHT22;12904;50.088;11.414;2022-08-01T09:53:57;26.80;93.00
24814;DHT22;12904;50.088;11.414;2022-08-01T09:56:24;26.50;94.30
24814;DHT22;12904;50.088;11.414;2022-08-01T10:01:20;25.60;99.90
24814;DHT22;12904;50.088;11.414;2022-08-01T10:03:46;25.30;99.90
24814;DHT22;12904;50.088;11.414;2022-08-01T10:06:21;25.00;99.90
24814;DHT22;12904;50.088;11.414;2022-08-01T10:08:48;24.80;99.90
24814;DHT22;12904;50.088;11.414;2022-08-01T10:11:14;24.60;99.90
24814;DHT22;12904;50.088;11.414;2022-08-01T10:13:40;24.30;99.90
24814;DHT22;12904;50.088;11.414;2022-08-01T10:16:06;24.10;99.90
24814;DHT22;12904;50.088;11.414;2022-08-01T10:18:34;24.30;99.90
24814;DHT22;12904;50.088;11.414;2022-08-01T10:21:02;24.60;99.90
24814;DHT22;12904;50.088;11.414;2022-08-01T10:23:33;25.00;99.90
24814;DHT22;12904;50.088;11.414;2022-08-01T10:26:00;25.30;99.90
24814;DHT22;12904;50.088;11.414;2022-08-01T10:28:30;25.10;99.90
24814;DHT22;12904;50.088;11.414;2022-08-01T10:30:58;24.80;99.90
24814;DHT22;12904;50.088;11.414;2022-08-01T10:33:24;24.60;99.90
24814;DHT22;12904;50.088;11.414;2022-08-01T10:35:51;24.50;99.90
24814;DHT22;12904;50.088;11.414;2022-08-01T10:38:17;24.40;99.90
24814;DHT22;12904;50.088;11.414;2022-08-01T10:40:43;24.20;99.90
24814;DHT22;12904;50.088;11.414;2022-08-01T10:43:12;24.00;99.90
24814;DHT22;12904;50.088;11.414;2022-08-01T10:45:41;23.90;99.90
24814;DHT22;12904;50.088;11.414;2022-08-01T10:50:55;24.00;99.90
24814;DHT22;12904;50.088;11.414;2022-08-01T10:53:25;24.20;99.90
24814;DHT22;12904;50.088;11.414;2022-08-01T10:58:34;25.30;99.90
24814;DHT22;12904;50.088;11.414;2022-08-01T11:01:24;26.90;99.90
24814;DHT22;12904;50.088;11.414;2022-08-01T11:04:10;28.10;91.80
24814;DHT22;12904;50.088;11.414;2022-08-01T11:06:44;28.50;90.40
24814;DHT22;12904;50.088;11.414;2022-08-01T11:12:03;28.60;83.20
24814;DHT22;12904;50.088;11.414;2022-08-01T11:14:31;28.70;83.30
24814;DHT22;12904;50.088;11.414;2022-08-01T11:17:33;28.90;81.30
24814;DHT22;12904;50.088;11.414;2022-08-01T11:20:14;29.70;77.10
24814;DHT22;12904;50.088;11.414;2022-08-01T11:30:49;30.50;67.10
24814;DHT22;12904;50.088;11.414;2022-08-01T11:33:16;30.30;68.40
24814;DHT22;12904;50.088;11.414;2022-08-01T11:38:37;30.00;67.50
24814;DHT22;12904;50.088;11.414;2022-08-01T11:44:14;29.80;67.80
24814;DHT22;12904;50.088;11.414;2022-08-01T11:54:47;29.20;69.50
24814;DHT22;12904;50.088;11.414;2022-08-01T11:57:17;29.30;71.10
24814;DHT22;12904;50.088;11.414;2022-08-01T11:59:45;29.20;71.60
24814;DHT22;12904;50.088;11.414;2022-08-01T12:05:06;28.90;71.50
24814;DHT22;12904;50.088;11.414;2022-08-01T12:07:33;28.80;71.90
24814;DHT22;12904;50.088;11.414;2022-08-01T12:10:10;28.60;73.00
24814;DHT22;12904;50.088;11.414;2022-08-01T12:12:41;28.70;73.40
24814;DHT22;12904;50.088;11.414;2022-08-01T12:15:08;28.80;73.40
24814;DHT22;12904;50.088;11.414;2022-08-01T12:17:43;29.00;73.10
24814;DHT22;12904;50.088;11.414;2022-08-01T12:20:12;29.00;71.90
24814;DHT22;12904;50.088;11.414;2022-08-01T12:22:38;29.10;70.60
24814;DHT22;12904;50.088;11.414;2022-08-01T12:25:12;28.90;71.70
24814;DHT22;12904;50.088;11.414;2022-08-01T12:27:39;28.80;71.60
24814;DHT22;12904;50.088;11.414;2022-08-01T12:30:09;28.70;72.60
24814;DHT22;12904;50.088;11.414;2022-08-01T12:32:37;28.60;73.00
24814;DHT22;12904;50.088;11.414;2022-08-01T12:35:04;28.60;73.40
24814;DHT22;12904;50.088;11.414;2022-08-01T12:37:34;28.40;73.60
24814;DHT22;12904;50.088;11.414;2022-08-01T12:40:00;28.40;73.30
24814;DHT22;12904;50.088;11.414;2022-08-01T12:42:26;28.20;74.50
24814;DHT22;12904;50.088;11.414;2022-08-01T12:44:52;28.20;76.60
24814;DHT22;12904;50.088;11.414;2022-08-01T12:47:19;28.30;76.40
24814;DHT22;12904;50.088;11.414;2022-08-01T12:49:46;28.40;75.50
24814;DHT22;12904;50.088;11.414;2022-08-01T12:52:13;28.50;73.10
24814;DHT22;12904;50.088;11.414;2022-08-01T12:55:03;28.80;72.10
24814;DHT22;12904;50.088;11.414;2022-08-01T12:57:29;29.00;72.90
24814;DHT22;12904;50.088;11.414;2022-08-01T13:02:37;28.90;73.30
24814;DHT22;12904;50.088;11.414;2022-08-01T13:05:05;28.90;71.30
24814;DHT22;12904;50.088;11.414;2022-08-01T13:10:06;29.10;71.60
24814;DHT22;12904;50.088;11.414;2022-08-01T13:12:32;29.20;71.80
24814;DHT22;12904;50.088;11.414;2022-08-01T13:14:58;29.50;70.70
24814;DHT22;12904;50.088;11.414;2022-08-01T13:17:33;29.80;71.50
24814;DHT22;12904;50.088;11.414;2022-08-01T13:20:04;29.80;68.00
24814;DHT22;12904;50.088;11.414;2022-08-01T13:22:34;30.00;68.90
24814;DHT22;12904;50.088;11.414;2022-08-01T13:25:13;30.10;67.30
24814;DHT22;12904;50.088;11.414;2022-08-01T13:27:39;30.00;68.00
24814;DHT22;12904;50.088;11.414;2022-08-01T13:30:16;30.10;67.60
24814;DHT22;12904;50.088;11.414;2022-08-01T13:32:43;30.00;67.70
24814;DHT22;12904;50.088;11.414;2022-08-01T13:35:12;29.90;64.20
24814;DHT22;12904;50.088;11.414;2022-08-01T13:37:41;30.00;63.80
24814;DHT22;12904;50.088;11.414;2022-08-01T13:40:09;30.00;63.00
24814;DHT22;12904;50.088;11.414;2022-08-01T13:42:35;29.70;63.60
24814;DHT22;12904;50.088;11.414;2022-08-01T13:45:02;29.70;63.80
24814;DHT22;12904;50.088;11.414;2022-08-01T13:47:28;29.50;63.60
24814;DHT22;12904;50.088;11.414;2022-08-01T13:49:54;29.50;63.10
24814;DHT22;12904;50.088;11.414;2022-08-01T13:52:19;29.30;64.60
24814;DHT22;12904;50.088;11.414;2022-08-01T13:54:45;29.30;62.80
24814;DHT22;12904;50.088;11.414;2022-08-01T13:57:11;29.50;62.90
24814;DHT22;12904;50.088;11.414;2022-08-01T13:59:36;29.60;64.40
24814;DHT22;12904;50.088;11.414;2022-08-01T14:02:02;29.70;65.70
24814;DHT22;12904;50.088;11.414;2022-08-01T14:04:28;30.00;63.10
24814;DHT22;12904;50.088;11.414;2022-08-01T14:06:53;30.20;62.80
24814;DHT22;12904;50.088;11.414;2022-08-01T14:09:19;30.60;59.50
24814;DHT22;12904;50.088;11.414;2022-08-01T14:11:48;31.00;59.10
24814;DHT22;12904;50.088;11.414;2022-08-01T14:14:13;31.20;56.90
24814;DHT22;12904;50.088;11.414;2022-08-01T14:16:39;31.40;57.50
24814;DHT22;12904;50.088;11.414;2022-08-01T14:19:05;31.40;57.50
24814;DHT22;12904;50.088;11.414;2022-08-01T14:21:31;31.40;57.20
24814;DHT22;12904;50.088;11.414;2022-08-01T14:23:56;31.40;56.50
24814;DHT22;12904;50.088;11.414;2022-08-01T14:26:22;31.60;57.70
24814;DHT22;12904;50.088;11.414;2022-08-01T14:28:48;31.80;57.00
24814;DHT22;12904;50.088;11.414;2022-08-01T14:31:13;31.70;56.20
24814;DHT22;12904;50.088;11.414;2022-08-01T14:33:39;31.60;56.40
24814;DHT22;12904;50.088;11.414;2022-08-01T14:36:05;31.40;56.20
24814;DHT22;12904;50.088;11.414;2022-08-01T14:38:30;31.00;56.80
24814;DHT22;12904;50.088;11.414;2022-08-01T14:40:56;30.80;56.30
24814;DHT22;12904;50.088;11.414;2022-08-01T14:43:22;30.40;55.50
24814;DHT22;12904;50.088;11.414;2022-08-01T14:45:47;30.10;56.30
24814;DHT22;12904;50.088;11.414;2022-08-01T14:48:18;30.20;57.20
24814;DHT22;12904;50.088;11.414;2022-08-01T14:50:44;30.20;56.70
24814;DHT22;12904;50.088;11.414;2022-08-01T14:53:09;30.20;56.80
24814;DHT22;12904;50.088;11.414;2022-08-01T14:55:35;30.20;56.40
24814;DHT22;12904;50.088;11.414;2022-08-01T14:58:01;30.30;56.00
24814;DHT22;12904;50.088;11.414;2022-08-01T15:00:26;30.30;56.20
24814;DHT22;12904;50.088;11.414;2022-08-01T15:02:52;30.40;55.30
24814;DHT22;12904;50.088;11.414;2022-08-01T15:05:18;30.30;55.40
24814;DHT22;12904;50.088;11.414;2022-08-01T15:07:43;30.20;56.00
24814;DHT22;12904;50.088;11.414;2022-08-01T15:10:09;30.20;55.90
24814;DHT22;12904;50.088;11.414;2022-08-01T15:12:35;30.20;56.00
24814;DHT22;12904;50.088;11.414;2022-08-01T15:15:01;30.10;55.60
24814;DHT22;12904;50.088;11.414;2022-08-01T15:17:29;30.10;55.80
24814;DHT22;12904;50.088;11.414;2022-08-01T15:19:57;30.10;55.90
24814;DHT22;12904;50.088;11.414;2022-08-01T15:22:24;30.00;55.80
24814;DHT22;12904;50.088;11.414;2022-08-01T15:24:51;30.00;56.40
24814;DHT22;12904;50.088;11.414;2022-08-01T15:27:18;29.90;55.80
24814;DHT22;12904;50.088;11.414;2022-08-01T15:29:43;29.70;55.10
24814;DHT22;12904;50.088;11.414;2022-08-01T15:32:09;29.70;55.20
24814;DHT22;12904;50.088;11.414;2022-08-01T15:34:36;29.90;55.60
24814;DHT22;12904;50.088;11.414;2022-08-01T15:37:03;29.80;55.20
24814;DHT22;12904;50.088;11.414;2022-08-01T15:39:29;29.70;55.50
24814;DHT22;12904;50.088;11.414;2022-08-01T15:41:59;29.50;55.10
24814;DHT22;12904;50.088;11.414;2022-08-01T15:44:25;29.30;55.30
24814;DHT22;12904;50.088;11.414;2022-08-01T15:46:51;29.00;56.40
24814;DHT22;12904;50.088;11.414;2022-08-01T15:49:17;28.90;56.60
24814;DHT22;12904;50.088;11.414;2022-08-01T15:51:44;28.70;57.10
24814;DHT22;12904;50.088;11.414;2022-08-01T15:54:10;28.60;57.30
24814;DHT22;12904;50.088;11.414;2022-08-01T15:56:36;28.50;57.20
24814;DHT22;12904;50.088;11.414;2022-08-01T15:59:03;28.60;58.20
24814;DHT22;12904;50.088;11.414;2022-08-01T16:01:29;28.50;58.00
24814;DHT22;12904;50.088;11.414;2022-08-01T16:03:55;28.50;58.00
24814;DHT22;12904;50.088;11.414;2022-08-01T16:06:23;28.50;58.40
24814;DHT22;12904;50.088;11.414;2022-08-01T16:08:49;28.50;57.80
24814;DHT22;12904;50.088;11.414;2022-08-01T16:11:14;28.50;59.10
24814;DHT22;12904;50.088;11.414;2022-08-01T16:13:40;28.50;58.20
24814;DHT22;12904;50.088;11.414;2022-08-01T16:16:10;28.30;58.80
24814;DHT22;12904;50.088;11.414;2022-08-01T16:18:36;28.20;59.10